sensor_id;sensor_type;location;lat;lon;timestamp;pressure;altitude;pressure_sealevel;temperature;humidity
76311;BME280;65120;59.304;18.294;2023-07-22T00:02:04;100521.66;;;15.06;64.38
76311;BME280;65120;59.304;18.294;2023-07-22T00:04:31;100523.53;;;15.02;64.31
76311;BME280;65120;59.304;18.294;2023-07-22T00:06:58;100533.34;;;14.99;64.43
76311;BME280;65120;59.304;18.294;2023-07-22T00:09:25;100529.06;;;14.96;64.53
76311;BME280;65120;59.304;18.294;2023-07-22T00:11:51;100524.78;;;14.94;64.56
76311;BME280;65120;59.304;18.294;2023-07-22T00:14:18;100520.56;;;14.90;64.54
76311;BME280;65120;59.304;18.294;2023-07-22T00:16:45;100524.19;;;14.87;64.47
76311;BME280;65120;59.304;18.294;2023-07-22T00:19:14;100525.16;;;14.84;64.41
76311;BME280;65120;59.304;18.294;2023-07-22T00:21:41;100529.63;;;14.82;64.45
76311;BME280;65120;59.304;18.294;2023-07-22T00:24:08;100528.88;;;14.79;64.26
76311;BME280;65120;59.304;18.294;2023-07-22T00:26:36;100534.22;;;14.77;64.31
76311;BME280;65120;59.304;18.294;2023-07-22T00:29:03;100508.72;;;14.57;64.36
76311;BME280;65120;59.304;18.294;2023-07-22T00:31:31;100533.59;;;14.71;64.32
76311;BME280;65120;59.304;18.294;2023-07-22T00:33:58;100538.06;;;14.69;64.18
76311;BME280;65120;59.304;18.294;2023-07-22T00:36:26;100538.16;;;14.66;64.16
76311;BME280;65120;59.304;18.294;2023-07-22T00:38:54;100535.66;;;14.62;64.15
76311;BME280;65120;59.304;18.294;2023-07-22T00:41:21;100546.28;;;14.59;64.07
76311;BME280;65120;59.304;18.294;2023-07-22T00:43:48;100542.00;;;14.57;64.01
76311;BME280;65120;59.304;18.294;2023-07-22T00:46:15;100541.28;;;14.53;63.99
76311;BME280;65120;59.304;18.294;2023-07-22T00:48:42;100536.13;;;14.50;64.07
76311;BME280;65120;59.304;18.294;2023-07-22T00:51:09;100535.31;;;14.48;64.10
76311;BME280;65120;59.304;18.294;2023-07-22T00:53:38;100529.31;;;14.45;64.13
76311;BME280;65120;59.304;18.294;2023-07-22T00:56:05;100539.91;;;14.43;63.98
76311;BME280;65120;59.304;18.294;2023-07-22T00:58:32;100533.03;;;14.39;63.98
76311;BME280;65120;59.304;18.294;2023-07-22T01:00:59;100535.75;;;14.37;64.00
76311;BME280;65120;59.304;18.294;2023-07-22T01:03:26;100533.22;;;14.34;63.96
76311;BME280;65120;59.304;18.294;2023-07-22T01:05:53;100533.41;;;14.30;63.95
76311;BME280;65120;59.304;18.294;2023-07-22T01:08:22;100538.69;;;14.28;64.15
76311;BME280;65120;59.304;18.294;2023-07-22T01:10:52;100530.06;;;14.25;63.98
76311;BME280;65120;59.304;18.294;2023-07-22T01:13:20;100531.13;;;14.21;63.84
76311;BME280;65120;59.304;18.294;2023-07-22T01:15:46;100534.72;;;14.18;63.96
76311;BME280;65120;59.304;18.294;2023-07-22T01:18:14;100533.09;;;14.14;64.07
76311;BME280;65120;59.304;18.294;2023-07-22T01:20:42;100534.94;;;14.12;64.05
76311;BME280;65120;59.304;18.294;2023-07-22T01:23:10;100534.13;;;14.10;64.02
76311;BME280;65120;59.304;18.294;2023-07-22T01:25:37;100536.88;;;14.07;64.01
76311;BME280;65120;59.304;18.294;2023-07-22T01:28:09;100537.84;;;14.04;64.16
76311;BME280;65120;59.304;18.294;2023-07-22T01:30:37;100544.91;;;14.02;64.19
76311;BME280;65120;59.304;18.294;2023-07-22T01:33:05;100559.00;;;14.00;64.14
76311;BME280;65120;59.304;18.294;2023-07-22T01:35:32;100548.56;;;13.98;63.89
76311;BME280;65120;59.304;18.294;2023-07-22T01:37:59;100548.69;;;13.95;64.04
76311;BME280;65120;59.304;18.294;2023-07-22T01:40:27;100548.81;;;13.92;64.16
76311;BME280;65120;59.304;18.294;2023-07-22T01:42:54;100547.13;;;13.89;63.94
76311;BME280;65120;59.304;18.294;2023-07-22T01:45:21;100552.44;;;13.88;64.03
76311;BME280;65120;59.304;18.294;2023-07-22T01:47:47;100543.75;;;13.86;64.04
76311;BME280;65120;59.304;18.294;2023-07-22T01:50:14;100549.06;;;13.84;64.23
76311;BME280;65120;59.304;18.294;2023-07-22T01:52:44;100553.50;;;13.82;64.12
76311;BME280;65120;59.304;18.294;2023-07-22T01:55:12;100549.28;;;13.78;64.28
76311;BME280;65120;59.304;18.294;2023-07-22T01:57:42;100547.50;;;13.79;64.21
76311;BME280;65120;59.304;18.294;2023-07-22T02:00:09;100547.63;;;13.76;64.09
76311;BME280;65120;59.304;18.294;2023-07-22T02:02:37;100549.44;;;13.73;64.09
76311;BME280;65120;59.304;18.294;2023-07-22T02:05:04;100546.88;;;13.72;64.18
76311;BME280;65120;59.304;18.294;2023-07-22T02:07:31;100548.75;;;13.68;64.17
76311;BME280;65120;59.304;18.294;2023-07-22T02:09:58;100551.44;;;13.67;64.06
76311;BME280;65120;59.304;18.294;2023-07-22T02:12:25;100552.31;;;13.66;64.20
76311;BME280;65120;59.304;18.294;2023-07-22T02:14:53;100552.44;;;13.63;64.22
76311;BME280;65120;59.304;18.294;2023-07-22T02:17:21;100551.56;;;13.62;64.14
76311;BME280;65120;59.304;18.294;2023-07-22T02:19:49;100559.56;;;13.59;64.12
76311;BME280;65120;59.304;18.294;2023-07-22T02:22:16;100556.13;;;13.57;64.21
76311;BME280;65120;59.304;18.294;2023-07-22T02:24:43;100551.78;;;13.56;64.22
76311;BME280;65120;59.304;18.294;2023-07-22T02:27:10;100552.81;;;13.52;64.36
76311;BME280;65120;59.304;18.294;2023-07-22T02:29:37;100552.81;;;13.52;64.52
76311;BME280;65120;59.304;18.294;2023-07-22T02:32:06;100537.59;;;13.37;64.62
76311;BME280;65120;59.304;18.294;2023-07-22T02:34:34;100561.75;;;13.46;64.41
76311;BME280;65120;59.304;18.294;2023-07-22T02:37:00;100565.28;;;13.45;64.42
76311;BME280;65120;59.304;18.294;2023-07-22T02:39:27;100548.03;;;13.38;64.87
76311;BME280;65120;59.304;18.294;2023-07-22T02:41:54;100559.28;;;13.42;64.67
76311;BME280;65120;59.304;18.294;2023-07-22T02:44:21;100556.69;;;13.40;64.85
76311;BME280;65120;59.304;18.294;2023-07-22T02:46:48;100550.69;;;13.37;64.88
76311;BME280;65120;59.304;18.294;2023-07-22T02:49:16;100559.41;;;13.37;64.93
76311;BME280;65120;59.304;18.294;2023-07-22T02:51:43;100554.25;;;13.36;64.94
76311;BME280;65120;59.304;18.294;2023-07-22T02:54:10;100561.25;;;13.35;65.04
76311;BME280;65120;59.304;18.294;2023-07-22T02:56:37;100526.72;;;13.21;65.35
76311;BME280;65120;59.304;18.294;2023-07-22T02:59:04;100552.56;;;13.33;65.10
76311;BME280;65120;59.304;18.294;2023-07-22T03:01:31;100550.88;;;13.32;65.29
76311;BME280;65120;59.304;18.294;2023-07-22T03:03:59;100552.63;;;13.32;65.07
76311;BME280;65120;59.304;18.294;2023-07-22T03:06:27;100550.91;;;13.31;65.27
76311;BME280;65120;59.304;18.294;2023-07-22T03:08:54;100549.19;;;13.30;65.15
76311;BME280;65120;59.304;18.294;2023-07-22T03:11:23;100554.44;;;13.30;65.27
76311;BME280;65120;59.304;18.294;2023-07-22T03:13:50;100540.63;;;13.23;65.30
76311;BME280;65120;59.304;18.294;2023-07-22T03:16:17;100554.50;;;13.28;65.44
76311;BME280;65120;59.304;18.294;2023-07-22T03:18:44;100551.00;;;13.27;65.43
76311;BME280;65120;59.304;18.294;2023-07-22T03:21:11;100548.44;;;13.26;65.45
76311;BME280;65120;59.304;18.294;2023-07-22T03:23:39;100549.31;;;13.26;65.79
76311;BME280;65120;59.304;18.294;2023-07-22T03:26:06;100543.19;;;13.26;65.61
76311;BME280;65120;59.304;18.294;2023-07-22T03:28:33;100529.47;;;13.18;65.73
76311;BME280;65120;59.304;18.294;2023-07-22T03:31:00;100543.25;;;13.23;65.88
76311;BME280;65120;59.304;18.294;2023-07-22T03:33:27;100536.19;;;13.25;65.94
76311;BME280;65120;59.304;18.294;2023-07-22T03:35:54;100552.78;;;13.27;65.98
76311;BME280;65120;59.304;18.294;2023-07-22T03:38:21;100549.31;;;13.26;66.12
76311;BME280;65120;59.304;18.294;2023-07-22T03:40:49;100541.53;;;13.22;66.04
76311;BME280;65120;59.304;18.294;2023-07-22T03:43:18;100556.25;;;13.27;66.15
76311;BME280;65120;59.304;18.294;2023-07-22T03:45:45;100555.34;;;13.28;66.25
76311;BME280;65120;59.304;18.294;2023-07-22T03:48:12;100557.94;;;13.30;66.45
76311;BME280;65120;59.304;18.294;2023-07-22T03:50:39;100550.06;;;13.30;66.38
76311;BME280;65120;59.304;18.294;2023-07-22T03:53:05;100554.34;;;13.33;66.49
76311;BME280;65120;59.304;18.294;2023-07-22T03:55:32;100561.31;;;13.34;66.57
76311;BME280;65120;59.304;18.294;2023-07-22T03:58:01;100558.56;;;13.37;66.40
76311;BME280;65120;59.304;18.294;2023-07-22T04:00:28;100557.69;;;13.38;66.48
76311;BME280;65120;59.304;18.294;2023-07-22T04:02:54;100560.97;;;13.43;66.53
76311;BME280;65120;59.304;18.294;2023-07-22T04:05:21;100566.13;;;13.46;66.67
76311;BME280;65120;59.304;18.294;2023-07-22T04:07:48;100562.53;;;13.48;66.50
76311;BME280;65120;59.304;18.294;2023-07-22T04:10:15;100540.91;;;13.42;66.53
76311;BME280;65120;59.304;18.294;2023-07-22T04:12:42;100560.59;;;13.55;66.50
76311;BME280;65120;59.304;18.294;2023-07-22T04:15:11;100559.63;;;13.58;66.57
76311;BME280;65120;59.304;18.294;2023-07-22T04:17:38;100560.31;;;13.63;66.36
76311;BME280;65120;59.304;18.294;2023-07-22T04:20:06;100560.19;;;13.66;66.48
76311;BME280;65120;59.304;18.294;2023-07-22T04:22:34;100560.06;;;13.70;66.33
76311;BME280;65120;59.304;18.294;2023-07-22T04:25:01;100559.13;;;13.71;66.59
76311;BME280;65120;59.304;18.294;2023-07-22T04:27:29;100561.56;;;13.78;66.53
76311;BME280;65120;59.304;18.294;2023-07-22T04:29:56;100561.38;;;13.82;66.43
76311;BME280;65120;59.304;18.294;2023-07-22T04:32:24;100551.91;;;13.78;66.62
76311;BME280;65120;59.304;18.294;2023-07-22T04:34:51;100556.84;;;13.87;66.57
76311;BME280;65120;59.304;18.294;2023-07-22T04:37:18;100566.16;;;13.96;66.64
76311;BME280;65120;59.304;18.294;2023-07-22T04:39:48;100568.53;;;14.02;66.38
76311;BME280;65120;59.304;18.294;2023-07-22T04:42:15;100571.88;;;14.07;66.68
76311;BME280;65120;59.304;18.294;2023-07-22T04:44:43;100566.34;;;14.15;66.68
76311;BME280;65120;59.304;18.294;2023-07-22T04:47:10;100570.44;;;14.22;66.59
76311;BME280;65120;59.304;18.294;2023-07-22T04:49:39;100579.75;;;14.31;66.16
76311;BME280;65120;59.304;18.294;2023-07-22T04:52:07;100569.09;;;14.35;66.18
76311;BME280;65120;59.304;18.294;2023-07-22T04:54:34;100555.78;;;14.40;66.06
76311;BME280;65120;59.304;18.294;2023-07-22T04:57:01;100573.63;;;14.55;65.81
76311;BME280;65120;59.304;18.294;2023-07-22T04:59:28;100577.50;;;14.69;65.83
76311;BME280;65120;59.304;18.294;2023-07-22T05:01:55;100577.16;;;14.78;65.56
76311;BME280;65120;59.304;18.294;2023-07-22T05:04:22;100574.09;;;14.89;65.63
76311;BME280;65120;59.304;18.294;2023-07-22T05:06:51;100572.75;;;15.00;65.18
76311;BME280;65120;59.304;18.294;2023-07-22T05:09:18;100558.56;;;15.04;64.85
76311;BME280;65120;59.304;18.294;2023-07-22T05:11:44;100570.03;;;15.24;64.64
76311;BME280;65120;59.304;18.294;2023-07-22T05:14:11;100566.13;;;15.34;64.42
76311;BME280;65120;59.304;18.294;2023-07-22T05:16:38;100571.78;;;15.45;64.11
76311;BME280;65120;59.304;18.294;2023-07-22T05:19:05;100573.09;;;15.56;63.73
76311;BME280;65120;59.304;18.294;2023-07-22T05:21:33;100574.34;;;15.67;63.57
76311;BME280;65120;59.304;18.294;2023-07-22T05:24:02;100568.66;;;15.78;63.01
76311;BME280;65120;59.304;18.294;2023-07-22T05:26:29;100560.31;;;15.89;63.08
76311;BME280;65120;59.304;18.294;2023-07-22T05:28:56;100563.38;;;15.99;62.62
76311;BME280;65120;59.304;18.294;2023-07-22T05:31:23;100563.75;;;16.10;62.42
76311;BME280;65120;59.304;18.294;2023-07-22T05:33:50;100559.78;;;16.20;62.23
76311;BME280;65120;59.304;18.294;2023-07-22T05:36:17;100558.44;;;16.30;61.95
76311;BME280;65120;59.304;18.294;2023-07-22T05:38:44;100558.78;;;16.41;61.59
76311;BME280;65120;59.304;18.294;2023-07-22T05:41:12;100563.66;;;16.51;61.70
76311;BME280;65120;59.304;18.294;2023-07-22T05:43:39;100564.09;;;16.60;61.60
76311;BME280;65120;59.304;18.294;2023-07-22T05:46:06;100559.22;;;16.70;61.46
76311;BME280;65120;59.304;18.294;2023-07-22T05:48:33;100565.00;;;16.78;61.04
76311;BME280;65120;59.304;18.294;2023-07-22T05:51:00;100558.53;;;16.85;60.74
76311;BME280;65120;59.304;18.294;2023-07-22T05:53:27;100559.94;;;16.93;60.67
76311;BME280;65120;59.304;18.294;2023-07-22T05:55:54;100562.28;;;16.99;60.49
76311;BME280;65120;59.304;18.294;2023-07-22T05:58:23;100553.34;;;17.01;60.07
76311;BME280;65120;59.304;18.294;2023-07-22T06:00:50;100556.56;;;17.08;59.92
76311;BME280;65120;59.304;18.294;2023-07-22T06:03:17;100558.13;;;17.12;59.70
76311;BME280;65120;59.304;18.294;2023-07-22T06:05:45;100551.78;;;17.16;59.40
76311;BME280;65120;59.304;18.294;2023-07-22T06:08:12;100555.97;;;17.20;59.55
76311;BME280;65120;59.304;18.294;2023-07-22T06:10:40;100522.16;;;17.09;59.12
76311;BME280;65120;59.304;18.294;2023-07-22T06:13:07;100549.53;;;17.26;59.13
76311;BME280;65120;59.304;18.294;2023-07-22T06:15:35;100540.66;;;17.27;59.27
76311;BME280;65120;59.304;18.294;2023-07-22T06:18:02;100547.50;;;17.31;59.09
76311;BME280;65120;59.304;18.294;2023-07-22T06:20:33;100545.63;;;17.33;58.82
76311;BME280;65120;59.304;18.294;2023-07-22T06:23:00;100544.72;;;17.34;58.99
76311;BME280;65120;59.304;18.294;2023-07-22T06:25:27;100545.41;;;17.38;58.87
76311;BME280;65120;59.304;18.294;2023-07-22T06:27:54;100547.09;;;17.39;58.91
76311;BME280;65120;59.304;18.294;2023-07-22T06:30:21;100540.91;;;17.40;59.01
76311;BME280;65120;59.304;18.294;2023-07-22T06:32:49;100546.88;;;17.43;58.89
76311;BME280;65120;59.304;18.294;2023-07-22T06:35:16;100548.56;;;17.44;58.98
76311;BME280;65120;59.304;18.294;2023-07-22T06:37:43;100550.38;;;17.44;58.56
76311;BME280;65120;59.304;18.294;2023-07-22T06:40:11;100552.00;;;17.46;58.54
76311;BME280;65120;59.304;18.294;2023-07-22T06:42:38;100551.94;;;17.48;58.25
76311;BME280;65120;59.304;18.294;2023-07-22T06:45:05;100530.19;;;17.43;58.24
76311;BME280;65120;59.304;18.294;2023-07-22T06:47:33;100536.09;;;17.48;57.98
76311;BME280;65120;59.304;18.294;2023-07-22T06:50:02;100541.38;;;17.48;57.83
76311;BME280;65120;59.304;18.294;2023-07-22T06:52:29;100539.66;;;17.47;57.74
76311;BME280;65120;59.304;18.294;2023-07-22T06:54:56;100537.84;;;17.47;58.08
76311;BME280;65120;59.304;18.294;2023-07-22T06:57:23;100540.50;;;17.47;57.84
76311;BME280;65120;59.304;18.294;2023-07-22T06:59:53;100544.88;;;17.48;57.78
76311;BME280;65120;59.304;18.294;2023-07-22T07:02:20;100543.06;;;17.49;58.09
76311;BME280;65120;59.304;18.294;2023-07-22T07:04:47;100548.28;;;17.50;57.93
76311;BME280;65120;59.304;18.294;2023-07-22T07:07:15;100535.78;;;17.54;57.96
76311;BME280;65120;59.304;18.294;2023-07-22T07:09:42;100542.69;;;17.57;57.91
76311;BME280;65120;59.304;18.294;2023-07-22T07:12:09;100537.47;;;17.55;57.71
76311;BME280;65120;59.304;18.294;2023-07-22T07:14:36;100515.19;;;17.43;57.47
76311;BME280;65120;59.304;18.294;2023-07-22T07:17:03;100545.09;;;17.61;57.27
76311;BME280;65120;59.304;18.294;2023-07-22T07:19:30;100540.59;;;17.63;57.31
76311;BME280;65120;59.304;18.294;2023-07-22T07:21:57;100536.25;;;17.62;57.06
76311;BME280;65120;59.304;18.294;2023-07-22T07:24:26;100539.50;;;17.67;56.76
76311;BME280;65120;59.304;18.294;2023-07-22T07:26:53;100532.81;;;17.60;56.00
76311;BME280;65120;59.304;18.294;2023-07-22T07:29:20;100543.75;;;17.70;56.10
76311;BME280;65120;59.304;18.294;2023-07-22T07:31:47;100541.91;;;17.72;55.96
76311;BME280;65120;59.304;18.294;2023-07-22T07:34:14;100540.94;;;17.73;55.76
76311;BME280;65120;59.304;18.294;2023-07-22T07:36:41;100541.84;;;17.73;56.02
76311;BME280;65120;59.304;18.294;2023-07-22T07:39:07;100546.16;;;17.74;55.51
76311;BME280;65120;59.304;18.294;2023-07-22T07:41:36;100544.25;;;17.78;55.71
76311;BME280;65120;59.304;18.294;2023-07-22T07:44:03;100539.69;;;17.82;55.28
76311;BME280;65120;59.304;18.294;2023-07-22T07:46:30;100543.69;;;17.89;55.69
76311;BME280;65120;59.304;18.294;2023-07-22T07:48:59;100539.81;;;17.96;55.14
76311;BME280;65120;59.304;18.294;2023-07-22T07:51:28;100532.47;;;18.01;54.98
76311;BME280;65120;59.304;18.294;2023-07-22T07:53:56;100539.13;;;18.08;54.57
76311;BME280;65120;59.304;18.294;2023-07-22T07:56:23;100528.41;;;18.11;54.77
76311;BME280;65120;59.304;18.294;2023-07-22T07:58:54;100527.84;;;18.22;54.01
76311;BME280;65120;59.304;18.294;2023-07-22T08:01:21;100533.63;;;18.29;53.83
76311;BME280;65120;59.304;18.294;2023-07-22T08:03:48;100546.16;;;18.41;53.88
76311;BME280;65120;59.304;18.294;2023-07-22T08:06:15;100550.09;;;18.50;53.29
76311;BME280;65120;59.304;18.294;2023-07-22T08:08:42;100528.25;;;18.46;52.71
76311;BME280;65120;59.304;18.294;2023-07-22T08:11:12;100553.72;;;18.64;53.00
76311;BME280;65120;59.304;18.294;2023-07-22T08:13:40;100553.28;;;18.72;53.12
76311;BME280;65120;59.304;18.294;2023-07-22T08:16:10;100565.16;;;18.81;53.46
76311;BME280;65120;59.304;18.294;2023-07-22T08:18:38;100557.66;;;18.89;53.11
76311;BME280;65120;59.304;18.294;2023-07-22T08:21:06;100551.84;;;18.98;53.31
76311;BME280;65120;59.304;18.294;2023-07-22T08:23:34;100551.31;;;19.07;53.50
76311;BME280;65120;59.304;18.294;2023-07-22T08:26:01;100545.66;;;19.14;52.97
76311;BME280;65120;59.304;18.294;2023-07-22T08:28:29;100551.38;;;19.22;52.12
76311;BME280;65120;59.304;18.294;2023-07-22T08:30:57;100555.34;;;19.29;52.77
76311;BME280;65120;59.304;18.294;2023-07-22T08:33:27;100547.81;;;19.37;51.96
76311;BME280;65120;59.304;18.294;2023-07-22T08:35:54;100545.75;;;19.42;51.95
76311;BME280;65120;59.304;18.294;2023-07-22T08:38:21;100549.59;;;19.52;51.37
76311;BME280;65120;59.304;18.294;2023-07-22T08:40:49;100555.25;;;19.61;51.63
76311;BME280;65120;59.304;18.294;2023-07-22T08:43:19;100537.66;;;19.60;50.75
76311;BME280;65120;59.304;18.294;2023-07-22T08:45:47;100543.13;;;19.72;51.38
76311;BME280;65120;59.304;18.294;2023-07-22T08:48:16;100546.13;;;19.81;50.95
76311;BME280;65120;59.304;18.294;2023-07-22T08:50:53;100543.22;;;19.85;50.67
76311;BME280;65120;59.304;18.294;2023-07-22T08:53:21;100547.22;;;19.92;50.40
76311;BME280;65120;59.304;18.294;2023-07-22T08:55:49;100528.75;;;19.91;50.48
76311;BME280;65120;59.304;18.294;2023-07-22T08:58:16;100543.03;;;20.03;49.32
76311;BME280;65120;59.304;18.294;2023-07-22T09:00:43;100539.06;;;20.10;49.73
76311;BME280;65120;59.304;18.294;2023-07-22T09:03:11;100544.84;;;20.16;49.24
76311;BME280;65120;59.304;18.294;2023-07-22T09:05:38;100536.50;;;20.22;48.38
76311;BME280;65120;59.304;18.294;2023-07-22T09:08:07;100541.53;;;20.27;48.67
76311;BME280;65120;59.304;18.294;2023-07-22T09:10:34;100544.81;;;20.31;48.35
76311;BME280;65120;59.304;18.294;2023-07-22T09:13:03;100548.13;;;20.34;48.02
76311;BME280;65120;59.304;18.294;2023-07-22T09:15:32;100549.94;;;20.34;47.88
76311;BME280;65120;59.304;18.294;2023-07-22T09:18:01;100549.75;;;20.37;47.94
76311;BME280;65120;59.304;18.294;2023-07-22T09:20:28;100554.13;;;20.38;47.37
76311;BME280;65120;59.304;18.294;2023-07-22T09:22:56;100550.69;;;20.36;47.66
76311;BME280;65120;59.304;18.294;2023-07-22T09:25:25;100554.84;;;20.40;47.68
76311;BME280;65120;59.304;18.294;2023-07-22T09:27:53;100545.09;;;20.40;47.63
76311;BME280;65120;59.304;18.294;2023-07-22T09:30:24;100536.59;;;20.35;46.91
76311;BME280;65120;59.304;18.294;2023-07-22T09:32:53;100557.03;;;20.48;47.63
76311;BME280;65120;59.304;18.294;2023-07-22T09:35:21;100552.56;;;20.48;47.23
76311;BME280;65120;59.304;18.294;2023-07-22T09:37:48;100514.81;;;20.30;47.81
76311;BME280;65120;59.304;18.294;2023-07-22T09:40:17;100552.22;;;20.54;47.46
76311;BME280;65120;59.304;18.294;2023-07-22T09:42:47;100556.28;;;20.60;47.78
76311;BME280;65120;59.304;18.294;2023-07-22T09:45:15;100558.19;;;20.58;47.69
76311;BME280;65120;59.304;18.294;2023-07-22T09:47:42;100565.00;;;20.62;47.54
76311;BME280;65120;59.304;18.294;2023-07-22T09:50:11;100557.81;;;20.64;47.22
76311;BME280;65120;59.304;18.294;2023-07-22T09:52:48;100557.59;;;20.67;47.70
76311;BME280;65120;59.304;18.294;2023-07-22T09:55:17;100554.94;;;20.67;46.66
76311;BME280;65120;59.304;18.294;2023-07-22T09:57:50;100560.06;;;20.70;46.81
76311;BME280;65120;59.304;18.294;2023-07-22T10:00:17;100553.78;;;20.71;47.07
76311;BME280;65120;59.304;18.294;2023-07-22T10:02:47;100555.50;;;20.72;46.98
76311;BME280;65120;59.304;18.294;2023-07-22T10:05:16;100566.13;;;20.72;46.98
76311;BME280;65120;59.304;18.294;2023-07-22T10:07:44;100560.06;;;20.70;46.55
76311;BME280;65120;59.304;18.294;2023-07-22T10:10:13;100554.84;;;20.69;46.53
76311;BME280;65120;59.304;18.294;2023-07-22T10:12:41;100555.16;;;20.64;46.40
76311;BME280;65120;59.304;18.294;2023-07-22T10:15:12;100551.66;;;20.63;46.42
76311;BME280;65120;59.304;18.294;2023-07-22T10:17:39;100556.06;;;20.63;46.41
76311;BME280;65120;59.304;18.294;2023-07-22T10:20:08;100558.72;;;20.63;46.23
76311;BME280;65120;59.304;18.294;2023-07-22T10:22:41;100553.63;;;20.60;46.13
76311;BME280;65120;59.304;18.294;2023-07-22T10:25:08;100559.88;;;20.59;46.32
76311;BME280;65120;59.304;18.294;2023-07-22T10:27:36;100558.28;;;20.56;46.16
76311;BME280;65120;59.304;18.294;2023-07-22T10:30:07;100553.06;;;20.55;46.31
76311;BME280;65120;59.304;18.294;2023-07-22T10:32:37;100547.03;;;20.53;46.70
76311;BME280;65120;59.304;18.294;2023-07-22T10:35:08;100527.19;;;20.44;47.11
76311;BME280;65120;59.304;18.294;2023-07-22T10:37:37;100542.56;;;20.53;46.30
76311;BME280;65120;59.304;18.294;2023-07-22T10:40:24;100545.78;;;20.58;46.48
76311;BME280;65120;59.304;18.294;2023-07-22T10:42:57;100545.66;;;20.60;47.28
76311;BME280;65120;59.304;18.294;2023-07-22T10:45:29;100545.47;;;20.63;47.24
76311;BME280;65120;59.304;18.294;2023-07-22T10:48:06;100537.41;;;20.64;46.47
76311;BME280;65120;59.304;18.294;2023-07-22T10:50:43;100536.38;;;20.67;46.77
76311;BME280;65120;59.304;18.294;2023-07-22T10:53:13;100544.91;;;20.72;46.31
76311;BME280;65120;59.304;18.294;2023-07-22T10:56:11;100543.81;;;20.75;46.68
76311;BME280;65120;59.304;18.294;2023-07-22T10:59:01;100543.81;;;20.75;46.99
76311;BME280;65120;59.304;18.294;2023-07-22T11:01:34;100549.88;;;20.77;47.04
76311;BME280;65120;59.304;18.294;2023-07-22T11:04:14;100546.19;;;20.79;46.99
76311;BME280;65120;59.304;18.294;2023-07-22T11:06:54;100543.34;;;20.82;46.50
76311;BME280;65120;59.304;18.294;2023-07-22T11:09:40;100538.66;;;20.86;46.47
76311;BME280;65120;59.304;18.294;2023-07-22T11:12:13;100533.28;;;20.87;46.00
76311;BME280;65120;59.304;18.294;2023-07-22T11:14:48;100541.16;;;20.89;45.41
76311;BME280;65120;59.304;18.294;2023-07-22T11:17:16;100537.53;;;20.90;46.30
76311;BME280;65120;59.304;18.294;2023-07-22T11:19:45;100544.53;;;20.91;45.46
76311;BME280;65120;59.304;18.294;2023-07-22T11:22:13;100532.03;;;20.93;45.76
76311;BME280;65120;59.304;18.294;2023-07-22T11:24:40;100523.09;;;20.94;46.02
76311;BME280;65120;59.304;18.294;2023-07-22T11:27:08;100536.06;;;20.99;45.77
76311;BME280;65120;59.304;18.294;2023-07-22T11:29:35;100535.09;;;21.00;45.74
76311;BME280;65120;59.304;18.294;2023-07-22T11:32:03;100543.00;;;21.01;45.42
76311;BME280;65120;59.304;18.294;2023-07-22T11:34:30;100540.22;;;21.03;45.59
76311;BME280;65120;59.304;18.294;2023-07-22T11:36:59;100528.00;;;21.00;45.09
76311;BME280;65120;59.304;18.294;2023-07-22T11:39:26;100536.91;;;20.99;45.28
76311;BME280;65120;59.304;18.294;2023-07-22T11:41:59;100546.28;;;21.05;45.58
76311;BME280;65120;59.304;18.294;2023-07-22T11:44:27;100544.59;;;21.04;45.52
76311;BME280;65120;59.304;18.294;2023-07-22T11:46:56;100538.53;;;21.02;45.73
76311;BME280;65120;59.304;18.294;2023-07-22T11:49:25;100541.94;;;21.04;46.22
76311;BME280;65120;59.304;18.294;2023-07-22T11:51:54;100525.44;;;20.99;46.18
76311;BME280;65120;59.304;18.294;2023-07-22T11:54:23;100539.16;;;21.05;45.80
76311;BME280;65120;59.304;18.294;2023-07-22T11:56:50;100532.72;;;21.09;45.71
76311;BME280;65120;59.304;18.294;2023-07-22T11:59:17;100531.66;;;21.12;45.71
76311;BME280;65120;59.304;18.294;2023-07-22T12:01:44;100533.34;;;21.13;45.14
76311;BME280;65120;59.304;18.294;2023-07-22T12:04:13;100524.84;;;21.08;45.00
76311;BME280;65120;59.304;18.294;2023-07-22T12:06:41;100533.56;;;21.10;45.83
76311;BME280;65120;59.304;18.294;2023-07-22T12:09:08;100533.56;;;21.10;45.71
76311;BME280;65120;59.304;18.294;2023-07-22T12:11:37;100523.91;;;21.09;44.98
76311;BME280;65120;59.304;18.294;2023-07-22T12:14:07;100520.38;;;21.08;44.71
76311;BME280;65120;59.304;18.294;2023-07-22T12:16:34;100523.91;;;21.09;45.17
76311;BME280;65120;59.304;18.294;2023-07-22T12:19:02;100526.56;;;21.09;45.16
76311;BME280;65120;59.304;18.294;2023-07-22T12:21:29;100505.81;;;21.01;45.17
76311;BME280;65120;59.304;18.294;2023-07-22T12:23:57;100511.00;;;21.03;44.11
76311;BME280;65120;59.304;18.294;2023-07-22T12:26:24;100515.94;;;21.09;44.53
76311;BME280;65120;59.304;18.294;2023-07-22T12:28:52;100512.53;;;21.07;44.25
76311;BME280;65120;59.304;18.294;2023-07-22T12:31:19;100524.84;;;21.08;44.54
76311;BME280;65120;59.304;18.294;2023-07-22T12:33:46;100524.06;;;21.06;44.29
76311;BME280;65120;59.304;18.294;2023-07-22T12:36:13;100514.22;;;21.08;44.72
76311;BME280;65120;59.304;18.294;2023-07-22T12:38:40;100514.22;;;21.08;44.43
76311;BME280;65120;59.304;18.294;2023-07-22T12:41:07;100515.94;;;21.09;43.82
76311;BME280;65120;59.304;18.294;2023-07-22T12:43:34;100519.53;;;21.08;44.29
76311;BME280;65120;59.304;18.294;2023-07-22T12:46:02;100519.31;;;21.11;44.10